Time;durP1;ratioP1;P1;durP2;ratioP2;P2;SDS_P1;SDS_P2;PMS_P1;PMS_P2;Temp;Humidity;BMP_temperature;BMP_pressure;BME280_temperature;BME280_humidity;BME280_pressure;Samples;Min_cycle;Max_cycle;Signal;HPM_P1;HPM_P2
2022/04/08 00:04:41;;;;;;;2.13;1.20;;;8.00;99.90;;;;;;10386722;28;20041;-84
2022/04/08 00:09:42;;;;;;;3.00;2.00;;;7.90;99.90;;;;;;10399760;28;20025;-84
2022/04/08 00:14:43;;;;;;;2.73;1.30;;;7.90;99.90;;;;;;10398690;28;20030;-84
2022/04/08 00:19:43;;;;;;;4.13;1.30;;;8.00;99.90;;;;;;10392043;28;20041;-83
2022/04/08 00:24:44;;;;;;;3.27;1.63;;;8.10;99.90;;;;;;10369108;28;20386;-83
2022/04/08 00:29:45;;;;;;;1.50;1.20;;;8.10;99.90;;;;;;10368737;28;20359;-83
2022/04/08 00:34:46;;;;;;;1.90;1.00;;;8.10;99.90;;;;;;10404591;28;20030;-83
2022/04/08 00:39:46;;;;;;;5.17;4.00;;;8.10;99.90;;;;;;10406164;28;20482;-83
2022/04/08 00:44:47;;;;;;;5.43;2.60;;;8.20;99.90;;;;;;10386086;28;20409;-83
2022/04/08 00:49:47;;;;;;;5.67;2.53;;;8.20;99.90;;;;;;10397652;28;20065;-83
2022/04/08 00:54:50;;;;;;;5.53;2.70;;;8.20;99.90;;;;;;10407525;28;20053;-82
2022/04/08 00:59:51;;;;;;;8.83;3.10;;;8.10;99.90;;;;;;10407392;28;20049;-82
2022/04/08 01:04:52;;;;;;;5.27;2.80;;;8.00;99.90;;;;;;10375793;28;20030;-82
2022/04/08 01:09:53;;;;;;;7.40;2.13;;;7.90;99.90;;;;;;10384686;28;20056;-82
2022/04/08 01:14:58;;;;;;;5.83;2.60;;;7.90;99.90;;;;;;10367295;28;20114;-82
2022/04/08 01:19:58;;;;;;;12.03;2.53;;;7.90;99.90;;;;;;10366881;28;20040;-84
2022/04/08 01:25:04;;;;;;;3.67;2.07;;;7.90;99.90;;;;;;10367668;28;20034;-85
2022/04/08 01:30:07;;;;;;;7.22;3.53;;;8.00;99.90;;;;;;10372731;28;20037;-84
2022/04/08 01:35:07;;;;;;;8.03;5.20;;;7.90;99.90;;;;;;10391733;28;20025;-83
2022/04/08 01:40:09;;;;;;;6.47;4.00;;;7.90;99.90;;;;;;10397991;28;20033;-83
2022/04/08 01:45:10;;;;;;;6.80;3.47;;;7.90;99.90;;;;;;10389150;28;20429;-84
2022/04/08 01:50:13;;;;;;;4.93;2.70;;;7.90;99.90;;;;;;10406820;28;20028;-85
2022/04/08 01:55:14;;;;;;;5.50;2.73;;;7.90;99.90;;;;;;10406353;28;20053;-82
2022/04/08 02:00:15;;;;;;;3.93;1.50;;;7.80;99.90;;;;;;10409306;28;20038;-82
2022/04/08 02:05:16;;;;;;;3.57;1.90;;;7.80;99.90;;;;;;10384161;28;20041;-82
2022/04/08 02:10:16;;;;;;;4.00;2.50;;;7.80;99.90;;;;;;10393199;28;20049;-85
2022/04/08 02:15:25;;;;;;;6.60;2.50;;;7.80;99.90;;;;;;10383126;28;20038;-83
2022/04/08 02:20:28;;;;;;;7.43;1.73;;;7.80;99.90;;;;;;10373735;28;20922;-84
2022/04/08 02:25:28;;;;;;;5.70;2.37;;;7.80;99.90;;;;;;10373063;28;20071;-82
2022/04/08 02:30:29;;;;;;;4.17;2.13;;;7.70;99.90;;;;;;10372985;28;20528;-84
2022/04/08 02:35:31;;;;;;;9.93;3.30;;;7.70;99.90;;;;;;10416307;23;20748;-82
2022/04/08 02:40:31;;;;;;;7.17;3.13;;;7.70;99.90;;;;;;10411560;28;20037;-82
2022/04/08 02:45:32;;;;;;;4.83;2.37;;;7.70;99.90;;;;;;10412763;28;20393;-82
2022/04/08 02:50:33;;;;;;;3.57;1.67;;;7.60;99.90;;;;;;10389082;28;20116;-83
2022/04/08 02:55:35;;;;;;;4.23;2.00;;;7.60;99.90;;;;;;10387307;28;20409;-85
2022/04/08 03:00:36;;;;;;;4.97;2.50;;;7.40;99.90;;;;;;10375251;28;20041;-82
2022/04/08 03:05:36;;;;;;;4.57;1.90;;;7.10;99.90;;;;;;10388214;28;20038;-82
2022/04/08 03:10:37;;;;;;;6.93;3.70;;;6.90;99.90;;;;;;10394323;28;20036;-82
2022/04/08 03:15:39;;;;;;;4.57;2.43;;;6.70;99.90;;;;;;10410184;28;20523;-82
2022/04/08 03:20:39;;;;;;;6.97;3.63;;;6.70;99.90;;;;;;10393179;28;20034;-83
2022/04/08 03:25:40;;;;;;;7.53;3.40;;;6.50;99.90;;;;;;10407872;28;20469;-84
2022/04/08 03:30:41;;;;;;;9.73;3.63;;;6.50;99.90;;;;;;10402124;28;20096;-83
2022/04/08 03:35:41;;;;;;;14.97;6.67;;;6.30;99.90;;;;;;10401207;28;20046;-83
2022/04/08 03:40:42;;;;;;;35.70;15.40;;;6.20;99.90;;;;;;10385947;28;20034;-82
2022/04/08 03:45:42;;;;;;;18.87;8.77;;;6.10;99.90;;;;;;10403741;28;20116;-80
2022/04/08 03:50:43;;;;;;;9.20;5.27;;;6.10;99.90;;;;;;10390843;28;20124;-82
2022/04/08 03:55:44;;;;;;;5.93;2.63;;;6.00;99.90;;;;;;10404570;28;20029;-83
2022/04/08 04:00:44;;;;;;;7.33;2.60;;;6.00;99.90;;;;;;10411140;28;20037;-85
2022/04/08 04:05:45;;;;;;;6.57;2.30;;;6.00;99.90;;;;;;10405016;28;20116;-83
2022/04/08 04:10:46;;;;;;;3.57;2.33;;;6.00;99.90;;;;;;10392100;28;20025;-82
2022/04/08 04:15:47;;;;;;;6.43;2.60;;;6.10;99.90;;;;;;10399016;28;20033;-86
2022/04/08 04:20:48;;;;;;;7.00;2.67;;;6.10;99.90;;;;;;10394598;28;20669;-83
2022/04/08 04:25:48;;;;;;;7.73;2.20;;;6.10;99.90;;;;;;10381447;28;20070;-83
2022/04/08 04:30:49;;;;;;;11.63;2.57;;;6.20;99.90;;;;;;10392774;28;20041;-85
2022/04/08 04:35:50;;;;;;;7.67;2.43;;;6.20;99.90;;;;;;10406223;28;20053;-82
2022/04/08 04:40:51;;;;;;;9.10;2.60;;;6.20;99.90;;;;;;10399181;28;20121;-86
2022/04/08 04:45:51;;;;;;;12.30;2.50;;;6.20;99.90;;;;;;10399122;28;20041;-81
2022/04/08 04:50:54;;;;;;;9.60;2.67;;;6.30;99.90;;;;;;10407732;28;20389;-81
2022/04/08 04:55:56;;;;;;;8.60;2.63;;;6.30;99.90;;;;;;10406447;28;20018;-86
2022/04/08 05:00:56;;;;;;;9.67;3.43;;;6.40;99.90;;;;;;10393033;28;20393;-82
2022/04/08 05:05:57;;;;;;;8.87;3.27;;;6.40;99.90;;;;;;10373876;28;20030;-83
2022/04/08 05:10:58;;;;;;;8.33;3.20;;;6.40;99.90;;;;;;10363607;28;20065;-80
2022/04/08 05:15:58;;;;;;;6.97;2.57;;;6.60;99.90;;;;;;10390562;28;20026;-83
2022/04/08 05:20:59;;;;;;;11.33;3.27;;;6.70;99.90;;;;;;10397879;28;20052;-81
2022/04/08 05:26:01;;;;;;;5.83;3.50;;;6.80;99.90;;;;;;10373694;28;20034;-82
2022/04/08 05:31:02;;;;;;;6.43;2.33;;;6.90;99.90;;;;;;10403585;28;20124;-81
2022/04/08 05:36:03;;;;;;;6.77;2.67;;;7.10;99.90;;;;;;10399715;28;20417;-81
2022/04/08 05:41:04;;;;;;;8.67;3.63;;;7.30;99.90;;;;;;10366993;28;20512;-85
2022/04/08 05:46:04;;;;;;;5.77;2.90;;;7.50;99.90;;;;;;10367218;28;20080;-81
2022/04/08 05:51:05;;;;;;;12.27;3.70;;;7.50;99.90;;;;;;10368395;28;20079;-81
2022/04/08 05:56:06;;;;;;;7.13;3.23;;;7.60;99.90;;;;;;10388674;28;20022;-83
2022/04/08 06:01:06;;;;;;;11.37;3.03;;;7.80;99.90;;;;;;10392942;28;20678;-83
2022/04/08 06:06:07;;;;;;;7.43;2.67;;;7.70;99.90;;;;;;10367445;28;20030;-81
2022/04/08 06:11:07;;;;;;;9.77;3.07;;;8.00;99.90;;;;;;10367098;28;20029;-81
2022/04/08 06:16:08;;;;;;;8.10;2.63;;;8.40;99.90;;;;;;10371040;28;20034;-83
2022/04/08 06:21:08;;;;;;;10.77;3.87;;;8.70;99.90;;;;;;10393039;28;20045;-80
2022/04/08 06:26:09;;;;;;;8.63;2.93;;;8.80;99.90;;;;;;10413503;28;20110;-81
2022/04/08 06:31:10;;;;;;;6.03;2.97;;;8.70;99.90;;;;;;10413712;28;20037;-82
2022/04/08 06:36:11;;;;;;;9.53;2.90;;;8.70;99.90;;;;;;10414197;28;20060;-82
2022/04/08 06:41:11;;;;;;;6.23;2.63;;;8.70;99.90;;;;;;10413528;28;20044;-81
2022/04/08 06:46:12;;;;;;;5.23;2.63;;;8.60;99.90;;;;;;10413709;28;20071;-82
2022/04/08 06:51:13;;;;;;;8.27;2.27;;;8.90;99.90;;;;;;10413730;28;20033;-83
2022/04/08 06:56:13;;;;;;;10.57;2.93;;;9.10;99.90;;;;;;10412981;28;20041;-81
2022/04/08 07:01:14;;;;;;;8.17;2.20;;;9.20;99.90;;;;;;10413215;28;20080;-81
2022/04/08 07:06:14;;;;;;;9.77;2.60;;;9.20;99.90;;;;;;10410355;28;20378;-82
2022/04/08 07:11:15;;;;;;;8.07;2.83;;;9.30;99.90;;;;;;10409237;28;20137;-83
2022/04/08 07:16:16;;;;;;;5.90;2.00;;;9.30;99.90;;;;;;10412100;28;20049;-80
2022/04/08 07:21:16;;;;;;;6.77;2.10;;;9.20;99.90;;;;;;10385028;28;20099;-83
2022/04/08 07:26:20;;;;;;;17.80;9.57;;;9.30;99.90;;;;;;10383397;28;20036;-82
2022/04/08 07:31:21;;;;;;;11.63;5.53;;;9.70;99.90;;;;;;10403017;28;20057;-78
2022/04/08 07:36:21;;;;;;;20.00;9.30;;;9.90;99.90;;;;;;10398015;28;20386;-82
2022/04/08 07:41:22;;;;;;;13.00;6.00;;;10.10;99.90;;;;;;10398195;28;20050;-83
2022/04/08 07:46:23;;;;;;;15.37;7.27;;;10.10;99.90;;;;;;10391751;28;20040;-82
2022/04/08 07:51:24;;;;;;;8.30;2.90;;;10.10;99.90;;;;;;10407873;28;20052;-81
2022/04/08 07:56:24;;;;;;;14.83;6.17;;;10.10;99.90;;;;;;10409141;28;20037;-80
2022/04/08 08:01:25;;;;;;;8.60;4.63;;;10.10;99.90;;;;;;10408602;28;20420;-83
2022/04/08 08:06:26;;;;;;;64.37;26.97;;;10.00;99.90;;;;;;10380833;28;20026;-82
2022/04/08 08:11:26;;;;;;;22.23;7.77;;;10.00;99.90;;;;;;10383439;28;20026;-81
2022/04/08 08:16:27;;;;;;;10.57;4.23;;;10.00;99.90;;;;;;10373430;28;20029;-81
2022/04/08 08:21:28;;;;;;;41.37;16.77;;;10.20;99.90;;;;;;10398988;28;20073;-82
2022/04/08 08:26:30;;;;;;;19.03;7.57;;;10.30;97.20;;;;;;10382389;28;20025;-80
2022/04/08 08:31:31;;;;;;;11.10;3.97;;;10.40;97.30;;;;;;10393460;28;20052;-83
2022/04/08 08:36:31;;;;;;;8.60;4.00;;;10.50;89.50;;;;;;10403781;28;20036;-80
2022/04/08 08:41:32;;;;;;;22.37;11.00;;;10.70;86.20;;;;;;10409018;28;20034;-79
2022/04/08 08:46:35;;;;;;;15.10;5.53;;;10.80;87.20;;;;;;10401459;28;20052;-83
2022/04/08 08:51:38;;;;;;;16.87;9.40;;;10.90;84.30;;;;;;10403501;28;20039;-80
2022/04/08 08:56:38;;;;;;;12.00;5.97;;;11.20;86.30;;;;;;10371849;28;20033;-82
2022/04/08 09:01:39;;;;;;;14.80;5.47;;;11.20;82.20;;;;;;10403489;28;20420;-81
2022/04/08 09:06:41;;;;;;;7.20;3.40;;;11.30;79.20;;;;;;10376496;28;20120;-82
2022/04/08 09:11:41;;;;;;;13.32;4.63;;;11.60;77.50;;;;;;10403621;28;20080;-81
2022/04/08 09:16:42;;;;;;;14.38;5.93;;;11.80;76.30;;;;;;10406929;28;20087;-85
2022/04/08 09:21:52;;;;;;;7.10;3.60;;;12.00;73.50;;;;;;10388747;28;20049;-82
2022/04/08 09:26:55;;;;;;;17.75;7.43;;;11.70;76.80;;;;;;10367113;28;20112;-82
2022/04/08 09:31:57;;;;;;;19.77;6.35;;;11.60;72.10;;;;;;10393919;28;20058;-80
2022/04/08 09:36:58;;;;;;;11.90;4.90;;;11.80;74.60;;;;;;10366907;28;20034;-80
2022/04/08 09:42:03;;;;;;;15.90;6.22;;;11.90;68.60;;;;;;10387748;28;20087;-83
2022/04/08 09:47:04;;;;;;;12.43;3.88;;;11.80;73.70;;;;;;10400549;28;20061;-81
2022/04/08 09:52:07;;;;;;;9.57;3.85;;;12.10;71.20;;;;;;10410987;28;20132;-81
2022/04/08 09:57:16;;;;;;;5.93;2.78;;;11.90;70.70;;;;;;10366919;28;20069;-80
2022/04/08 10:02:18;;;;;;;5.40;2.42;;;11.90;72.00;;;;;;10415588;28;20037;-81
2022/04/08 10:07:19;;;;;;;5.90;2.80;;;12.30;70.20;;;;;;10414963;28;20026;-81
2022/04/08 10:12:40;;;;;;;6.53;2.78;;;12.50;68.00;;;;;;10413925;28;20033;-79
2022/04/08 10:17:41;;;;;;;8.15;4.32;;;12.10;65.40;;;;;;10414436;28;20034;-80
2022/04/08 10:22:41;;;;;;;9.07;2.97;;;12.00;67.30;;;;;;10413962;28;20413;-81
2022/04/08 10:27:44;;;;;;;13.15;4.47;;;12.10;66.10;;;;;;10414366;28;20420;-80
2022/04/08 10:32:47;;;;;;;11.15;3.92;;;12.20;65.80;;;;;;10396204;28;20591;-81
2022/04/08 10:37:58;;;;;;;21.75;6.82;;;12.40;66.70;;;;;;10382959;28;20532;-82
2022/04/08 10:43:08;;;;;;;7.97;3.50;;;12.40;66.50;;;;;;10408163;28;20120;-81
2022/04/08 10:48:11;;;;;;;8.35;2.72;;;12.20;64.60;;;;;;10414091;28;20035;-82
2022/04/08 10:53:24;;;;;;;19.10;6.95;;;12.30;64.20;;;;;;10411237;28;20041;-79
2022/04/08 10:58:38;;;;;;;7.70;2.78;;;12.50;64.30;;;;;;10413614;28;20024;-81
2022/04/08 11:03:44;;;;;;;8.45;3.03;;;12.10;63.30;;;;;;10411176;28;20035;-80
2022/04/08 11:08:45;;;;;;;;;;;11.90;65.50;;;;;;10402814;28;20032;-81
2022/04/08 11:13:56;;;;;;;13.95;5.55;;;12.10;64.50;;;;;;10406897;28;19995;-81
2022/04/08 11:18:57;;;;;;;8.18;3.58;;;11.80;67.30;;;;;;10379831;28;20041;-80
2022/04/08 11:24:02;;;;;;;6.80;2.72;;;12.60;65.90;;;;;;10398673;28;20385;-81
2022/04/08 11:29:15;;;;;;;11.27;4.63;;;12.70;62.50;;;;;;10408153;28;20017;-81
2022/04/08 11:34:16;;;;;;;14.45;4.78;;;12.50;62.70;;;;;;10371323;28;20108;-80
2022/04/08 11:39:21;;;;;;;7.57;2.72;;;12.30;62.80;;;;;;10371327;28;20029;-80
2022/04/08 11:44:22;;;;;;;7.85;3.38;;;12.00;62.90;;;;;;10411183;28;20418;-82
2022/04/08 11:49:27;;;;;;;13.80;5.32;;;11.80;63.40;;;;;;10371677;28;20037;-81
2022/04/08 11:54:28;;;;;;;7.85;2.83;;;11.90;66.00;;;;;;10400958;28;20469;-80
2022/04/08 11:59:28;;;;;;;5.25;1.30;;;12.90;65.90;;;;;;10409358;28;20037;-82
2022/04/08 12:04:29;;;;;;;7.55;3.72;;;13.40;60.90;;;;;;10405448;28;20021;-81
2022/04/08 12:09:31;;;;;;;7.72;4.00;;;13.80;60.10;;;;;;10410176;28;20050;-80
2022/04/08 12:14:32;;;;;;;10.80;4.97;;;14.10;58.50;;;;;;10408061;28;20044;-81
2022/04/08 12:19:40;;;;;;;9.52;3.35;;;14.00;60.20;;;;;;10409664;28;20057;-80
2022/04/08 12:24:42;;;;;;;9.18;4.15;;;14.30;58.40;;;;;;10410204;28;20025;-80
2022/04/08 12:29:45;;;;;;;11.55;4.88;;;13.80;58.60;;;;;;10410008;28;20108;-80
2022/04/08 12:34:46;;;;;;;5.65;2.75;;;13.60;59.90;;;;;;10408247;28;20457;-81
2022/04/08 12:39:47;;;;;;;5.15;2.50;;;14.10;60.60;;;;;;10408930;28;20049;-82
2022/04/08 12:44:47;;;;;;;2.67;1.60;;;14.90;57.70;;;;;;10407756;28;20022;-81
2022/04/08 12:49:48;;;;;;;4.55;1.30;;;15.00;56.00;;;;;;10368268;28;20022;-82
2022/04/08 12:54:52;;;;;;;3.85;1.80;;;14.90;56.60;;;;;;10368192;28;20457;-81
2022/04/08 12:59:52;;;;;;;6.07;2.83;;;14.70;55.50;;;;;;10385841;28;20037;-82
2022/04/08 13:04:53;;;;;;;8.38;4.38;;;14.40;55.10;;;;;;10401136;28;20465;-80
2022/04/08 13:09:53;;;;;;;17.63;9.27;;;14.00;57.60;;;;;;10386807;28;20033;-81
2022/04/08 13:14:54;;;;;;;10.20;4.05;;;13.90;56.60;;;;;;10407977;28;20025;-80
2022/04/08 13:19:55;;;;;;;8.25;4.20;;;14.00;59.30;;;;;;10390507;28;20063;-80
2022/04/08 13:24:55;;;;;;;11.77;4.93;;;14.10;56.40;;;;;;10411008;28;20029;-81
2022/04/08 13:29:56;;;;;;;14.68;5.75;;;13.80;56.80;;;;;;10396915;28;20026;-81
2022/04/08 13:34:56;;;;;;;5.68;2.10;;;13.80;56.80;;;;;;10405377;28;20041;-80
2022/04/08 13:39:57;;;;;;;27.58;13.05;;;13.50;56.50;;;;;;10415874;28;20056;-80
2022/04/08 13:44:58;;;;;;;31.92;14.27;;;13.30;56.50;;;;;;10399283;28;20397;-80
2022/04/08 13:49:58;;;;;;;28.98;13.98;;;13.60;55.50;;;;;;10386746;28;20440;-83
2022/04/08 13:54:59;;;;;;;14.40;6.60;;;13.70;55.70;;;;;;10398848;28;20034;-80
2022/04/08 13:59:59;;;;;;;5.90;2.33;;;13.80;57.10;;;;;;10400624;28;20034;-81
2022/04/08 14:05:01;;;;;;;17.73;8.27;;;13.70;55.90;;;;;;10402166;28;20029;-80
2022/04/08 14:10:01;;;;;;;18.85;7.82;;;13.50;54.50;;;;;;10415345;28;20032;-82
2022/04/08 14:15:03;;;;;;;20.45;11.23;;;13.30;54.30;;;;;;10405570;28;20036;-80
2022/04/08 14:20:04;;;;;;;6.13;2.40;;;13.10;55.10;;;;;;10397506;28;20045;-79
2022/04/08 14:25:06;;;;;;;12.68;5.88;;;13.00;55.70;;;;;;10414965;28;20461;-83
2022/04/08 14:30:07;;;;;;;12.48;6.28;;;13.10;56.70;;;;;;10410611;28;20033;-81
2022/04/08 14:35:08;;;;;;;6.28;2.60;;;13.00;54.40;;;;;;10410362;28;20140;-80
2022/04/08 14:40:09;;;;;;;17.70;8.15;;;13.00;55.60;;;;;;10395621;28;20496;-78
2022/04/08 14:45:10;;;;;;;18.08;8.88;;;13.10;55.80;;;;;;10398821;28;20038;-82
2022/04/08 14:50:10;;;;;;;17.35;7.95;;;13.10;57.30;;;;;;10407715;23;20050;-81
2022/04/08 14:55:11;;;;;;;8.90;4.07;;;13.00;57.30;;;;;;10372159;28;20026;-81
2022/04/08 15:00:12;;;;;;;15.50;6.50;;;12.90;58.10;;;;;;10371980;28;20030;-82
2022/04/08 15:05:13;;;;;;;52.60;24.75;;;12.90;59.00;;;;;;10371619;28;20049;-80
2022/04/08 15:10:14;;;;;;;38.10;19.25;;;12.70;58.80;;;;;;10365288;28;20037;-82
2022/04/08 15:15:15;;;;;;;20.00;9.80;;;12.70;59.00;;;;;;10366865;28;20083;-82
2022/04/08 15:20:17;;;;;;;7.03;3.58;;;12.60;59.90;;;;;;10370738;28;20049;-80
2022/04/08 15:25:18;;;;;;;20.30;9.52;;;12.40;59.80;;;;;;10370924;28;20033;-82
2022/04/08 15:30:19;;;;;;;15.02;7.50;;;12.20;61.90;;;;;;10376488;23;20061;-82
2022/04/08 15:35:20;;;;;;;10.00;3.63;;;11.90;63.50;;;;;;10369013;28;20041;-82
2022/04/08 15:40:21;;;;;;;20.73;9.38;;;11.60;65.40;;;;;;10367932;28;20052;-82
2022/04/08 15:45:21;;;;;;;33.58;14.57;;;11.50;65.80;;;;;;10369864;28;20034;-81
2022/04/08 15:50:22;;;;;;;35.63;13.43;;;11.30;68.00;;;;;;10366066;28;20038;-80
2022/04/08 15:55:23;;;;;;;13.30;6.40;;;11.10;67.70;;;;;;10357473;28;20116;-80
2022/04/08 16:00:23;;;;;;;8.27;3.60;;;11.00;69.40;;;;;;10366455;28;20161;-81
2022/04/08 16:05:24;;;;;;;11.63;3.43;;;10.90;71.40;;;;;;10367138;28;20605;-83
2022/04/08 16:10:25;;;;;;;18.57;7.13;;;10.80;72.40;;;;;;10387043;23;20065;-76
2022/04/08 16:15:25;;;;;;;34.60;12.03;;;10.60;72.10;;;;;;10371083;28;20041;-78
2022/04/08 16:20:26;;;;;;;11.27;5.40;;;10.50;74.20;;;;;;10367977;28;20042;-78
2022/04/08 16:25:27;;;;;;;24.13;8.90;;;10.30;75.90;;;;;;10367889;28;20080;-81
2022/04/08 16:30:28;;;;;;;18.87;7.87;;;10.20;79.00;;;;;;10353443;28;20412;-79
2022/04/08 16:35:28;;;;;;;37.17;15.77;;;10.10;81.00;;;;;;10366287;28;20021;-78
2022/04/08 16:40:29;;;;;;;21.77;8.93;;;10.00;84.30;;;;;;10346217;28;20034;-82
2022/04/08 16:45:30;;;;;;;18.37;7.33;;;9.80;87.60;;;;;;10349553;28;20044;-79
2022/04/08 16:50:30;;;;;;;24.87;13.03;;;9.60;91.60;;;;;;10367957;28;20547;-79
2022/04/08 16:55:34;;;;;;;22.07;9.50;;;9.40;95.70;;;;;;10367200;28;20084;-79
2022/04/08 17:00:35;;;;;;;22.27;9.83;;;9.30;99.90;;;;;;10363434;28;20038;-79
2022/04/08 17:05:35;;;;;;;44.37;20.37;;;9.10;99.90;;;;;;10347870;28;20030;-80
2022/04/08 17:10:36;;;;;;;36.70;17.20;;;9.10;99.90;;;;;;10354343;28;20418;-80
2022/04/08 17:15:37;;;;;;;15.93;7.83;;;9.00;99.90;;;;;;10348120;28;20084;-81
2022/04/08 17:20:39;;;;;;;15.37;6.33;;;8.90;99.90;;;;;;10354127;28;20046;-82
2022/04/08 17:25:41;;;;;;;29.17;11.97;;;8.70;99.90;;;;;;10347585;28;20030;-85
2022/04/08 17:30:41;;;;;;;25.77;11.43;;;8.60;99.90;;;;;;10364622;28;20034;-81
2022/04/08 17:35:43;;;;;;;64.83;35.93;;;8.60;99.90;;;;;;10328911;28;20540;-80
2022/04/08 17:40:43;;;;;;;26.47;10.37;;;8.50;99.90;;;;;;10339407;28;20038;-82
2022/04/08 17:45:44;;;;;;;14.57;6.37;;;8.40;99.90;;;;;;10360528;28;20045;-81
2022/04/08 17:50:45;;;;;;;21.17;10.50;;;8.10;99.90;;;;;;10365215;28;20389;-81
2022/04/08 17:55:46;;;;;;;20.67;10.43;;;7.90;99.90;;;;;;10365907;28;20034;-83
2022/04/08 18:00:46;;;;;;;17.73;8.33;;;7.70;99.90;;;;;;10365488;28;20128;-81
2022/04/08 18:05:47;;;;;;;14.63;5.87;;;7.60;99.90;;;;;;10364775;28;20734;-82
2022/04/08 18:10:48;;;;;;;29.40;15.23;;;7.30;99.90;;;;;;10367443;28;20108;-80
2022/04/08 18:15:49;;;;;;;24.33;13.77;;;7.20;99.90;;;;;;10373412;28;20034;-80
2022/04/08 18:20:49;;;;;;;26.07;12.83;;;7.20;99.90;;;;;;10354452;28;20068;-81
2022/04/08 18:25:51;;;;;;;26.10;12.80;;;7.10;99.90;;;;;;10370968;28;20069;-83
2022/04/08 18:30:52;;;;;;;24.23;12.90;;;7.20;99.90;;;;;;10361548;28;20022;-84
2022/04/08 18:35:53;;;;;;;30.63;16.00;;;7.20;99.90;;;;;;10364008;28;20029;-80
2022/04/08 18:40:54;;;;;;;36.17;19.00;;;7.20;99.90;;;;;;10354118;28;20049;-84
2022/04/08 18:45:55;;;;;;;43.73;26.50;;;7.20;99.90;;;;;;10347388;28;20551;-84
2022/04/08 18:50:57;;;;;;;24.90;15.80;;;7.20;99.90;;;;;;10364110;28;20037;-82
2022/04/08 18:55:58;;;;;;;23.03;13.97;;;7.20;99.90;;;;;;10364769;28;20018;-81
2022/04/08 19:01:01;;;;;;;15.50;9.37;;;7.20;99.90;;;;;;10351198;28;20037;-79
2022/04/08 19:06:02;;;;;;;24.37;9.87;;;7.20;99.90;;;;;;10354728;28;20109;-81
2022/04/08 19:11:03;;;;;;;25.23;10.50;;;7.10;99.90;;;;;;10365545;28;20053;-81
2022/04/08 19:16:04;;;;;;;19.30;8.03;;;7.00;99.90;;;;;;10370985;28;20036;-82
2022/04/08 19:21:04;;;;;;;11.33;6.73;;;7.00;99.90;;;;;;10374306;28;20053;-83
2022/04/08 19:26:05;;;;;;;17.10;11.70;;;7.00;99.90;;;;;;10369858;28;20233;-81
2022/04/08 19:31:06;;;;;;;27.87;14.40;;;7.00;99.90;;;;;;10369595;28;20034;-84
2022/04/08 19:36:07;;;;;;;51.70;22.53;;;7.00;99.90;;;;;;10370120;28;20084;-81
2022/04/08 19:41:07;;;;;;;45.20;21.17;;;7.00;99.90;;;;;;10368310;28;20060;-83
2022/04/08 19:46:09;;;;;;;36.07;16.63;;;7.00;99.90;;;;;;10370147;28;20037;-81
2022/04/08 19:51:10;;;;;;;36.43;17.30;;;6.90;99.90;;;;;;10369927;28;20038;-82
2022/04/08 19:56:11;;;;;;;42.10;22.93;;;6.80;99.90;;;;;;10370167;28;20030;-82
2022/04/08 20:01:12;;;;;;;49.17;24.67;;;6.60;99.90;;;;;;10350791;28;20047;-84
2022/04/08 20:06:13;;;;;;;43.10;21.97;;;6.40;99.90;;;;;;10369509;28;20049;-84
2022/04/08 20:11:13;;;;;;;31.77;15.27;;;6.40;99.90;;;;;;10359394;28;20054;-81
2022/04/08 20:16:15;;;;;;;57.60;24.73;;;6.30;99.90;;;;;;10342940;28;20507;-82
2022/04/08 20:21:16;;;;;;;57.70;24.73;;;6.30;99.90;;;;;;10359053;28;20037;-83
2022/04/08 20:26:18;;;;;;;63.97;27.03;;;6.20;99.90;;;;;;10368418;28;20367;-82
2022/04/08 20:31:19;;;;;;;80.17;34.93;;;6.10;99.90;;;;;;10368229;28;20026;-86
2022/04/08 20:36:20;;;;;;;66.33;30.10;;;6.20;99.90;;;;;;10367282;28;20095;-82
2022/04/08 20:41:20;;;;;;;45.47;24.10;;;6.30;99.90;;;;;;10368861;28;20069;-81
2022/04/08 20:46:23;;;;;;;46.20;20.87;;;6.30;99.90;;;;;;10367687;28;20029;-82
2022/04/08 20:51:24;;;;;;;61.43;27.13;;;6.20;99.90;;;;;;10367775;28;20504;-83
2022/04/08 20:56:24;;;;;;;47.23;24.80;;;6.10;99.90;;;;;;10350109;28;20073;-81
2022/04/08 21:01:27;;;;;;;40.20;20.77;;;6.00;99.90;;;;;;10367099;28;20036;-81
2022/04/08 21:06:27;;;;;;;47.60;23.23;;;5.90;99.90;;;;;;10367861;28;20529;-83
2022/04/08 21:11:28;;;;;;;57.70;25.07;;;5.80;99.90;;;;;;10368265;28;20177;-82
2022/04/08 21:16:29;;;;;;;38.87;18.30;;;5.80;99.90;;;;;;10366069;28;20026;-82
2022/04/08 21:21:30;;;;;;;41.10;19.00;;;5.80;99.90;;;;;;10366787;28;20046;-82
2022/04/08 21:26:33;;;;;;;49.07;23.97;;;5.70;99.90;;;;;;10366356;28;20101;-82
2022/04/08 21:31:34;;;;;;;35.57;15.73;;;5.80;99.90;;;;;;10349715;28;20053;-83
2022/04/08 21:36:35;;;;;;;26.73;11.53;;;5.80;99.90;;;;;;10366008;28;20572;-85
2022/04/08 21:41:36;;;;;;;25.73;12.20;;;5.70;99.90;;;;;;10364168;28;20034;-84
2022/04/08 21:46:36;;;;;;;21.83;10.67;;;5.60;99.90;;;;;;10343907;28;20402;-83
2022/04/08 21:51:37;;;;;;;24.00;11.23;;;5.60;99.90;;;;;;10355778;28;20571;-82
2022/04/08 21:56:38;;;;;;;24.77;11.17;;;5.60;99.90;;;;;;10325706;28;20026;-85
2022/04/08 22:02:32;;;;;;;22.10;10.97;;;5.60;99.90;;;;;;10370790;28;20034;-82
2022/04/08 22:07:51;;;;;;;22.33;10.20;;;5.50;99.90;;;;;;10354669;28;20124;-82
2022/04/08 22:12:51;;;;;;;22.57;10.87;;;5.50;99.90;;;;;;10354311;28;20078;-83
2022/04/08 22:17:52;;;;;;;21.73;10.50;;;5.30;99.90;;;;;;10372404;28;20065;-83
2022/04/08 22:22:53;;;;;;;23.77;10.33;;;5.30;99.90;;;;;;10373262;28;20113;-86
2022/04/08 22:27:54;;;;;;;15.83;8.53;;;5.30;99.90;;;;;;10369970;28;20030;-83
2022/04/08 22:32:57;;;;;;;15.83;7.80;;;5.30;99.90;;;;;;10353313;28;20030;-82
2022/04/08 22:37:58;;;;;;;20.43;9.47;;;5.20;99.90;;;;;;10371428;28;20109;-84
2022/04/08 22:42:59;;;;;;;23.03;11.70;;;5.10;99.90;;;;;;10359721;28;20087;-82
2022/04/08 22:48:00;;;;;;;24.23;12.87;;;5.10;99.90;;;;;;10355362;28;20149;-82
2022/04/08 22:53:01;;;;;;;25.83;12.00;;;5.30;99.90;;;;;;10344859;28;20036;-84
2022/04/08 22:58:54;;;;;;;31.80;13.90;;;5.30;99.90;;;;;;10356823;28;20484;-82
2022/04/08 23:03:22;;;;;;;31.60;13.63;;;5.30;99.90;;;;;;10353021;28;20104;-82
2022/04/08 23:08:23;;;;;;;35.07;14.60;;;5.40;99.90;;;;;;10357443;28;20117;-83
2022/04/08 23:13:24;;;;;;;25.23;13.13;;;5.30;99.90;;;;;;10354437;28;20106;-82
2022/04/08 23:18:25;;;;;;;27.67;12.87;;;5.30;99.90;;;;;;10349504;28;20475;-83
2022/04/08 23:23:26;;;;;;;29.83;14.13;;;5.30;99.90;;;;;;10347607;28;20037;-82
2022/04/08 23:28:26;;;;;;;28.73;13.60;;;5.20;99.90;;;;;;10347651;28;20026;-84
2022/04/08 23:33:27;;;;;;;28.20;12.30;;;5.10;99.90;;;;;;10361166;28;20030;-86
2022/04/08 23:38:27;;;;;;;33.10;15.00;;;5.10;99.90;;;;;;10361085;28;20060;-86
2022/04/08 23:43:28;;;;;;;32.77;15.47;;;5.10;99.90;;;;;;10354531;28;20042;-83
2022/04/08 23:48:31;;;;;;;34.33;15.53;;;5.10;99.90;;;;;;10347002;28;20038;-82
2022/04/08 23:53:33;;;;;;;31.27;13.27;;;5.00;99.90;;;;;;10334068;28;20041;-86
2022/04/08 23:58:33;;;;;;;33.70;15.23;;;5.10;99.90;;;;;;10358177;28;20035;-87
